createdAt,value
2022-11-07T00:01:21.952Z,28.00
2022-11-07T00:03:48.763Z,30.25
2022-11-07T00:06:15.531Z,31.23
2022-11-07T00:08:42.131Z,28.00
2022-11-07T00:11:08.976Z,33.45
2022-11-07T00:13:35.628Z,31.23
2022-11-07T00:16:08.262Z,31.05
2022-11-07T00:18:35.217Z,32.97
2022-11-07T00:21:09.407Z,33.90
2022-11-07T00:23:37.012Z,38.25
2022-11-07T00:26:04.946Z,37.38
2022-11-07T00:28:42.694Z,32.40
2022-11-07T00:31:11.542Z,35.60
2022-11-07T00:33:38.137Z,37.45
2022-11-07T00:36:05.176Z,37.15
2022-11-07T00:38:32.274Z,33.75
2022-11-07T00:41:01.752Z,37.50
2022-11-07T00:43:29.298Z,39.13
2022-11-07T00:45:56.802Z,41.17
2022-11-07T00:48:23.585Z,38.53
2022-11-07T00:50:50.489Z,41.58
2022-11-07T00:53:17.463Z,43.17
2022-11-07T00:55:44.273Z,41.10
2022-11-07T00:58:13.795Z,42.47
2022-11-07T01:00:42.040Z,39.10
2022-11-07T01:03:27.691Z,46.50
2022-11-07T01:06:03.168Z,42.30
2022-11-07T01:08:30.483Z,44.42
2022-11-07T01:10:58.950Z,40.10
2022-11-07T01:13:26.542Z,42.35
2022-11-07T01:15:53.853Z,44.47
2022-11-07T01:18:20.579Z,47.67
2022-11-07T01:20:47.271Z,47.88
2022-11-07T01:23:14.441Z,47.85
2022-11-07T01:25:41.673Z,46.47
2022-11-07T01:28:09.749Z,51.10
2022-11-07T01:30:43.740Z,50.63
2022-11-07T01:33:11.022Z,48.22
2022-11-07T01:35:38.017Z,47.55
2022-11-07T01:38:04.910Z,49.97
2022-11-07T01:40:33.854Z,45.00
2022-11-07T01:43:00.570Z,53.83
2022-11-07T01:45:29.705Z,53.22
2022-11-07T01:48:00.768Z,53.72
2022-11-07T01:50:27.743Z,47.72
2022-11-07T01:52:56.840Z,47.90
2022-11-07T01:55:29.325Z,47.58
2022-11-07T01:58:00.148Z,50.90
2022-11-07T02:00:27.761Z,51.67
2022-11-07T02:03:21.168Z,47.85
2022-11-07T02:05:54.979Z,51.78
2022-11-07T02:08:22.860Z,55.92
2022-11-07T02:10:50.103Z,54.05
2022-11-07T02:13:25.335Z,56.13
2022-11-07T02:15:52.611Z,55.83
2022-11-07T02:18:19.941Z,54.03
2022-11-07T02:20:46.775Z,61.20
2022-11-07T02:23:41.192Z,55.80
2022-11-07T02:26:09.559Z,59.80
2022-11-07T02:28:38.302Z,63.78
2022-11-07T02:31:05.087Z,63.10
2022-11-07T02:33:31.626Z,56.03
2022-11-07T02:35:58.781Z,58.50
2022-11-07T02:38:34.927Z,68.38
2022-11-07T02:41:09.689Z,56.78
2022-11-07T02:43:39.240Z,61.92
2022-11-07T02:46:09.437Z,60.38
2022-11-07T02:48:47.797Z,67.60
2022-11-07T02:51:14.806Z,62.65
2022-11-07T02:53:41.601Z,58.03
2022-11-07T02:56:09.226Z,64.93
2022-11-07T02:58:36.785Z,62.15
2022-11-07T03:01:07.231Z,67.75
2022-11-07T03:03:39.696Z,68.63
2022-11-07T03:06:08.270Z,63.67
2022-11-07T03:08:35.143Z,61.25
2022-11-07T03:11:02.521Z,63.80
2022-11-07T03:13:29.240Z,58.78
2022-11-07T03:15:56.170Z,58.45
2022-11-07T03:18:23.243Z,54.60
2022-11-07T03:20:49.887Z,56.47
2022-11-07T03:23:17.012Z,56.80
2022-11-07T03:25:43.894Z,51.60
2022-11-07T03:28:10.524Z,54.35
2022-11-07T03:30:37.117Z,45.55
2022-11-07T03:33:03.868Z,43.72
2022-11-07T03:35:30.482Z,48.45
2022-11-07T03:37:57.067Z,47.85
2022-11-07T03:40:23.614Z,39.88
2022-11-07T03:42:50.147Z,41.65
2022-11-07T03:45:17.225Z,40.72
2022-11-07T03:47:45.789Z,44.33
2022-11-07T03:50:16.132Z,44.75
2022-11-07T03:52:42.876Z,45.20
2022-11-07T03:55:11.183Z,50.75
2022-11-07T03:57:38.308Z,47.72
2022-11-07T04:00:05.659Z,50.58
2022-11-07T04:02:32.542Z,62.47
2022-11-07T04:04:59.137Z,54.05
2022-11-07T04:07:25.670Z,57.78
2022-11-07T04:09:52.351Z,58.22
2022-11-07T04:12:37.206Z,51.08
2022-11-07T04:15:22.579Z,48.40
2022-11-07T04:17:49.136Z,48.35
2022-11-07T04:20:15.725Z,44.20
2022-11-07T04:22:42.303Z,46.25
2022-11-07T04:25:09.698Z,46.83
2022-11-07T04:27:46.944Z,41.38
2022-11-07T04:30:19.538Z,39.78
2022-11-07T04:32:48.153Z,41.13
2022-11-07T04:35:15.796Z,37.72
2022-11-07T04:37:43.187Z,36.92
2022-11-07T04:40:11.149Z,39.85
2022-11-07T04:42:38.270Z,38.95
2022-11-07T04:45:05.616Z,34.97
2022-11-07T04:47:34.311Z,37.55
2022-11-07T04:50:06.642Z,40.38
2022-11-07T04:52:33.364Z,36.42
2022-11-07T04:55:00.155Z,39.38
2022-11-07T04:57:26.755Z,36.42
2022-11-07T04:59:53.486Z,41.60
2022-11-07T05:02:23.889Z,39.67
2022-11-07T05:04:52.157Z,40.72
2022-11-07T05:07:19.843Z,34.67
2022-11-07T05:09:46.540Z,40.38
2022-11-07T05:12:14.105Z,33.80
2022-11-07T05:14:40.739Z,52.97
2022-11-07T05:17:07.932Z,41.83
2022-11-07T05:19:34.487Z,47.40
2022-11-07T05:22:20.166Z,36.88
2022-11-07T05:24:46.766Z,40.72
2022-11-07T05:27:20.727Z,36.03
2022-11-07T05:29:47.259Z,34.92
2022-11-07T05:32:14.784Z,35.78
2022-11-07T05:34:41.573Z,41.20
2022-11-07T05:37:09.349Z,40.55
2022-11-07T05:39:36.590Z,36.15
2022-11-07T05:42:03.869Z,42.67
2022-11-07T05:44:31.043Z,41.10
2022-11-07T05:46:58.007Z,36.78
2022-11-07T05:49:25.633Z,37.70
2022-11-07T05:51:53.183Z,42.72
2022-11-07T05:54:20.081Z,33.92
2022-11-07T05:56:46.640Z,33.92
2022-11-07T05:59:13.847Z,33.03
2022-11-07T06:01:40.796Z,28.92
2022-11-07T06:04:07.938Z,36.08
2022-11-07T06:06:34.940Z,36.70
2022-11-07T06:09:01.884Z,29.77
2022-11-07T06:11:28.432Z,32.28
2022-11-07T06:13:55.161Z,26.50
2022-11-07T06:16:21.959Z,28.25
2022-11-07T06:18:48.543Z,26.05
2022-11-07T06:21:16.861Z,28.25
2022-11-07T06:23:43.865Z,27.25
2022-11-07T06:26:11.029Z,30.02
2022-11-07T06:28:37.686Z,34.13
2022-11-07T06:31:05.515Z,32.58
2022-11-07T06:33:32.987Z,35.25
2022-11-07T06:36:08.481Z,33.97
2022-11-07T06:38:35.850Z,43.72
2022-11-07T06:41:11.208Z,32.45
2022-11-07T06:43:38.902Z,29.95
2022-11-07T06:46:07.916Z,26.17
2022-11-07T06:48:34.679Z,29.38
2022-11-07T06:51:02.739Z,29.15
2022-11-07T06:53:29.632Z,30.20
2022-11-07T06:56:00.603Z,31.02
2022-11-07T06:58:27.401Z,32.53
2022-11-07T07:00:54.177Z,30.77
2022-11-07T07:03:20.813Z,31.58
2022-11-07T07:05:47.498Z,34.13
2022-11-07T07:08:14.876Z,35.30
2022-11-07T07:10:44.588Z,41.33
2022-11-07T07:13:14.196Z,40.67
2022-11-07T07:15:51.302Z,41.28
2022-11-07T07:18:19.077Z,37.38
2022-11-07T07:20:46.601Z,40.65
2022-11-07T07:23:13.321Z,41.58
2022-11-07T07:25:39.978Z,38.22
2022-11-07T07:28:06.501Z,32.65
2022-11-07T07:30:33.240Z,37.75
2022-11-07T07:32:59.859Z,34.83
2022-11-07T07:35:26.584Z,36.38
2022-11-07T07:37:53.305Z,35.67
2022-11-07T07:40:38.761Z,37.35
2022-11-07T07:43:05.281Z,32.75
2022-11-07T07:45:31.907Z,34.58
2022-11-07T07:48:02.524Z,35.40
2022-11-07T07:50:29.230Z,39.55
2022-11-07T07:52:58.921Z,35.80
2022-11-07T07:55:25.831Z,39.90
2022-11-07T07:57:52.559Z,32.42
2022-11-07T08:00:19.395Z,34.92
2022-11-07T08:02:46.056Z,34.10
2022-11-07T08:05:13.801Z,29.17
2022-11-07T08:07:51.010Z,36.28
2022-11-07T08:13:05.900Z,31.65
2022-11-07T08:15:32.518Z,33.25
2022-11-07T08:18:02.250Z,31.58
2022-11-07T08:20:28.834Z,27.67
2022-11-07T08:23:11.323Z,28.63
2022-11-07T08:25:41.506Z,31.70
2022-11-07T08:28:08.716Z,33.88
2022-11-07T08:30:35.953Z,28.08
2022-11-07T08:33:03.406Z,33.75
2022-11-07T08:35:31.425Z,32.88
2022-11-07T08:37:59.098Z,32.60
2022-11-07T08:40:26.344Z,37.45
2022-11-07T08:42:53.067Z,35.53
2022-11-07T08:45:19.728Z,34.45
2022-11-07T08:47:46.326Z,29.58
2022-11-07T08:50:13.121Z,35.22
2022-11-07T08:52:39.720Z,33.30
2022-11-07T08:55:06.736Z,31.42
2022-11-07T08:57:33.433Z,29.77
2022-11-07T08:59:59.969Z,32.20
2022-11-07T09:03:08.364Z,27.45
2022-11-07T09:05:13.972Z,27.27
2022-11-07T09:07:40.578Z,23.40
2022-11-07T09:10:07.730Z,30.33
2022-11-07T09:12:34.418Z,31.25
2022-11-07T09:15:01.035Z,28.02
2022-11-07T09:17:28.179Z,23.42
2022-11-07T09:19:54.825Z,30.23
2022-11-07T09:23:17.611Z,26.67
2022-11-07T09:25:45.072Z,26.88
2022-11-07T09:28:11.803Z,19.23
2022-11-07T09:30:38.323Z,28.98
2022-11-07T09:33:05.123Z,30.55
2022-11-07T09:35:31.661Z,25.42
2022-11-07T09:37:58.317Z,27.83
2022-11-07T09:40:30.649Z,18.23
2022-11-07T09:43:25.638Z,20.48
2022-11-07T09:45:57.502Z,23.42
2022-11-07T09:48:27.254Z,17.92
2022-11-07T09:50:53.939Z,20.05
2022-11-07T09:53:41.345Z,19.25
2022-11-07T09:56:12.447Z,15.35
2022-11-07T09:58:44.717Z,19.20
2022-11-07T10:01:18.080Z,17.33
2022-11-07T10:04:10.219Z,15.95
2022-11-07T10:06:41.041Z,19.02
2022-11-07T10:09:43.041Z,17.17
2022-11-07T10:12:45.958Z,16.10
2022-11-07T10:15:30.349Z,21.02
2022-11-07T10:18:24.724Z,19.30
2022-11-07T10:21:38.764Z,14.65
2022-11-07T10:24:20.382Z,13.27
2022-11-07T10:26:47.060Z,19.05
2022-11-07T10:29:16.643Z,18.00
2022-11-07T10:31:48.838Z,17.42
2022-11-07T10:34:24.378Z,17.65
2022-11-07T10:36:51.398Z,20.55
2022-11-07T10:39:19.315Z,16.45
2022-11-07T10:42:05.381Z,21.23
2022-11-07T10:44:33.889Z,19.20
2022-11-07T10:47:02.292Z,20.73
2022-11-07T10:49:29.855Z,19.50
2022-11-07T10:52:16.852Z,20.38
2022-11-07T10:54:45.066Z,15.70
2022-11-07T10:57:16.347Z,17.10
2022-11-07T10:59:56.622Z,19.50
2022-11-07T11:02:32.091Z,18.88
2022-11-07T11:05:04.845Z,14.32
2022-11-07T11:07:39.972Z,21.13
2022-11-07T11:10:31.699Z,16.75
2022-11-07T11:12:58.225Z,15.75
2022-11-07T11:15:31.228Z,18.17
2022-11-07T11:18:06.718Z,19.30
2022-11-07T11:20:45.455Z,17.48
2022-11-07T11:23:21.172Z,19.13
2022-11-07T11:25:49.620Z,16.30
2022-11-07T11:28:43.451Z,13.82
2022-11-07T11:31:20.112Z,17.60
2022-11-07T11:34:03.681Z,15.90
2022-11-07T11:36:42.670Z,14.85
2022-11-07T11:39:45.543Z,14.25
2022-11-07T11:42:30.213Z,18.17
2022-11-07T11:45:03.792Z,20.42
2022-11-07T11:47:41.442Z,17.67
2022-11-07T11:50:18.447Z,14.00
2022-11-07T11:52:45.998Z,18.00
2022-11-07T11:55:14.535Z,16.90
2022-11-07T11:58:07.465Z,14.65
2022-11-07T12:00:54.215Z,21.10
2022-11-07T12:03:39.179Z,15.18
2022-11-07T12:06:14.222Z,16.25
2022-11-07T12:08:59.575Z,19.35
2022-11-07T12:12:01.176Z,16.13
2022-11-07T12:14:39.894Z,13.93
2022-11-07T12:17:13.263Z,15.48
2022-11-07T12:19:54.989Z,19.30
2022-11-07T12:22:33.351Z,21.02
2022-11-07T12:25:14.687Z,16.48
2022-11-07T12:28:09.207Z,21.05
2022-11-07T12:30:39.356Z,16.23
2022-11-07T12:33:22.117Z,19.10
2022-11-07T12:35:58.859Z,16.77
2022-11-07T12:38:31.599Z,18.38
2022-11-07T12:41:10.328Z,22.60
2022-11-07T12:43:43.179Z,18.63
2022-11-07T12:46:40.215Z,20.63
2022-11-07T12:49:44.962Z,17.15
2022-11-07T12:52:48.552Z,19.77
2022-11-07T12:55:27.437Z,18.15
2022-11-07T12:57:55.208Z,19.30
2022-11-07T13:00:29.239Z,13.85
2022-11-07T13:03:04.638Z,14.55
2022-11-07T13:05:37.974Z,17.30
2022-11-07T13:08:16.474Z,21.35
2022-11-07T13:11:04.206Z,16.83
2022-11-07T13:13:50.400Z,17.85
2022-11-07T13:16:22.603Z,17.17
2022-11-07T13:18:49.248Z,19.13
2022-11-07T13:21:16.052Z,17.50
2022-11-07T13:23:43.588Z,19.02
2022-11-07T13:26:44.572Z,19.75
2022-11-07T13:29:01.503Z,18.20
2022-11-07T13:31:35.751Z,18.38
2022-11-07T13:34:12.323Z,14.85
2022-11-07T13:36:39.521Z,18.05
2022-11-07T13:39:07.638Z,17.13
2022-11-07T13:41:34.795Z,15.07
2022-11-07T13:44:08.058Z,16.63
2022-11-07T13:46:46.653Z,21.20
2022-11-07T13:49:22.646Z,15.93
2022-11-07T13:51:54.234Z,17.10
2022-11-07T13:54:38.400Z,16.58
2022-11-07T13:57:27.206Z,20.85
2022-11-07T14:00:01.978Z,15.68
2022-11-07T14:02:31.486Z,17.15
2022-11-07T14:05:19.265Z,16.77
2022-11-07T14:07:54.435Z,17.27
2022-11-07T14:10:29.652Z,18.40
2022-11-07T14:13:08.388Z,22.15
2022-11-07T14:15:37.794Z,18.40
2022-11-07T14:18:04.903Z,19.45
2022-11-07T14:20:31.680Z,17.60
2022-11-07T14:23:02.881Z,16.80
2022-11-07T14:25:32.767Z,17.60
2022-11-07T14:28:00.760Z,20.42
2022-11-07T14:30:30.348Z,20.95
2022-11-07T14:33:02.295Z,14.50
2022-11-07T14:35:34.480Z,21.83
2022-11-07T14:38:15.712Z,19.40
2022-11-07T14:40:43.073Z,20.00
2022-11-07T14:43:20.215Z,15.88
2022-11-07T14:46:11.179Z,15.75
2022-11-07T14:48:36.086Z,18.85
2022-11-07T14:51:03.693Z,17.23
2022-11-07T14:53:33.799Z,15.55
2022-11-07T14:56:08.011Z,16.45
2022-11-07T14:58:35.417Z,16.15
2022-11-07T15:01:08.335Z,20.95
2022-11-07T15:03:38.101Z,23.83
2022-11-07T15:06:04.904Z,19.80
2022-11-07T15:08:36.798Z,22.95
2022-11-07T15:11:24.692Z,18.90
2022-11-07T15:13:51.389Z,26.85
2022-11-07T15:16:20.608Z,25.15
2022-11-07T15:18:50.521Z,18.58
2022-11-07T15:21:34.730Z,22.75
2022-11-07T15:24:33.247Z,26.15
2022-11-07T15:27:02.747Z,25.38
2022-11-07T15:29:35.953Z,24.88
2022-11-07T15:32:24.141Z,28.92
2022-11-07T15:35:07.978Z,26.92
2022-11-07T15:37:40.270Z,25.55
2022-11-07T15:40:16.674Z,31.35
2022-11-07T15:42:43.266Z,29.00
2022-11-07T15:45:11.147Z,31.52
2022-11-07T15:47:38.682Z,33.25
2022-11-07T15:50:14.174Z,29.08
2022-11-07T15:52:40.758Z,29.48
2022-11-07T15:55:12.341Z,31.83
2022-11-07T15:57:39.490Z,32.03
2022-11-07T16:00:06.842Z,33.17
2022-11-07T16:02:33.620Z,31.17
2022-11-07T16:05:00.298Z,27.38
2022-11-07T16:07:27.012Z,28.60
2022-11-07T16:09:53.715Z,30.50
2022-11-07T16:12:20.246Z,28.90
2022-11-07T16:14:46.867Z,31.60
2022-11-07T16:17:16.985Z,30.30
2022-11-07T16:19:43.813Z,29.17
2022-11-07T16:22:13.196Z,30.65
2022-11-07T16:24:39.796Z,31.05
2022-11-07T16:27:07.087Z,30.58
2022-11-07T16:29:33.689Z,29.10
2022-11-07T16:32:00.344Z,34.38
2022-11-07T16:34:26.969Z,32.05
2022-11-07T16:36:53.746Z,34.70
2022-11-07T16:39:22.800Z,36.28
2022-11-07T16:41:50.420Z,43.08
2022-11-07T16:44:21.673Z,42.60
2022-11-07T16:46:51.628Z,35.75
2022-11-07T16:49:25.197Z,36.60
2022-11-07T16:51:52.038Z,40.47
2022-11-07T16:54:19.013Z,37.78
2022-11-07T16:56:47.307Z,35.45
2022-11-07T16:59:18.933Z,37.55
2022-11-07T17:01:46.055Z,42.47
2022-11-07T17:04:12.883Z,38.92
2022-11-07T17:06:43.551Z,40.17
2022-11-07T17:09:13.640Z,45.35
2022-11-07T17:11:40.413Z,42.65
2022-11-07T17:14:06.994Z,46.53
2022-11-07T17:16:36.853Z,49.17
2022-11-07T17:19:05.693Z,55.83
2022-11-07T17:21:36.351Z,61.00
2022-11-07T17:24:04.144Z,64.00
2022-11-07T17:26:34.684Z,60.10
2022-11-07T17:29:02.842Z,62.40
2022-11-07T17:31:29.422Z,61.22
2022-11-07T17:33:56.034Z,65.20
2022-11-07T17:36:37.477Z,55.30
2022-11-07T17:39:12.412Z,49.92
2022-11-07T17:41:40.779Z,58.70
2022-11-07T17:44:07.756Z,61.42
2022-11-07T17:46:35.641Z,72.00
2022-11-07T17:49:05.014Z,77.35
2022-11-07T17:51:31.603Z,78.38
2022-11-07T17:53:58.733Z,80.57
2022-11-07T17:56:28.421Z,70.60
2022-11-07T17:58:58.034Z,71.50
2022-11-07T18:01:31.066Z,70.88
2022-11-07T18:03:58.954Z,73.97
2022-11-07T18:06:26.600Z,71.47
2022-11-07T18:08:55.930Z,71.57
2022-11-07T18:11:25.636Z,70.88
2022-11-07T18:13:54.370Z,75.05
2022-11-07T18:16:26.374Z,73.07
2022-11-07T18:18:53.196Z,73.95
2022-11-07T18:21:19.782Z,73.53
2022-11-07T18:23:46.379Z,59.92
2022-11-07T18:26:25.359Z,61.70
2022-11-07T18:28:53.745Z,58.00
2022-11-07T18:31:22.398Z,58.30
2022-11-07T18:33:52.633Z,62.60
2022-11-07T18:36:21.417Z,60.90
2022-11-07T18:38:48.586Z,58.20
2022-11-07T18:41:19.621Z,64.65
2022-11-07T18:43:46.322Z,62.67
2022-11-07T18:46:15.061Z,66.70
2022-11-07T18:48:42.125Z,53.42
2022-11-07T18:51:16.509Z,64.45
2022-11-07T18:53:43.664Z,56.80
2022-11-07T18:56:11.980Z,58.70
2022-11-07T18:58:38.967Z,53.53
2022-11-07T19:01:13.928Z,59.85
2022-11-07T19:03:42.882Z,68.03
2022-11-07T19:06:12.314Z,58.17
2022-11-07T19:08:41.385Z,56.42
2022-11-07T19:11:10.647Z,55.92
2022-11-07T19:13:38.784Z,52.10
2022-11-07T19:16:07.845Z,49.17
2022-11-07T19:18:35.363Z,55.08
2022-11-07T19:21:03.850Z,52.33
2022-11-07T19:23:31.034Z,54.15
2022-11-07T19:25:57.670Z,52.88
2022-11-07T19:28:24.253Z,57.70
2022-11-07T19:30:50.864Z,55.90
2022-11-07T19:33:18.180Z,54.63
2022-11-07T19:35:44.977Z,46.70
2022-11-07T19:38:13.811Z,53.33
2022-11-07T19:40:41.489Z,57.90
2022-11-07T19:43:09.521Z,61.63
2022-11-07T19:45:41.246Z,63.72
2022-11-07T19:48:07.942Z,61.78
2022-11-07T19:50:34.543Z,82.35
2022-11-07T19:53:01.168Z,74.95
2022-11-07T19:55:27.887Z,80.97
2022-11-07T19:57:54.487Z,55.13
2022-11-07T20:00:21.227Z,66.22
2022-11-07T20:02:48.418Z,66.78
2022-11-07T20:05:24.168Z,72.85
2022-11-07T20:07:55.264Z,62.92
2022-11-07T20:10:24.275Z,71.25
2022-11-07T20:12:50.940Z,78.70
2022-11-07T20:15:17.581Z,71.38
2022-11-07T20:17:44.275Z,78.45
2022-11-07T20:20:13.725Z,81.95
2022-11-07T20:22:46.409Z,83.57
2022-11-07T20:25:13.526Z,82.10
2022-11-07T20:27:40.303Z,86.78
2022-11-07T20:30:07.790Z,67.43
2022-11-07T20:32:34.380Z,67.40
2022-11-07T20:35:00.982Z,78.60
2022-11-07T20:37:27.557Z,79.60
2022-11-07T20:39:54.132Z,88.78
2022-11-07T20:42:21.245Z,86.95
2022-11-07T20:44:50.078Z,95.35
2022-11-07T20:47:17.225Z,95.85
2022-11-07T20:49:43.885Z,106.63
2022-11-07T20:52:11.005Z,103.38
2022-11-07T20:54:37.769Z,106.35
2022-11-07T20:57:04.496Z,102.45
2022-11-07T20:59:31.984Z,102.50
2022-11-07T21:02:03.115Z,100.45
2022-11-07T21:04:44.605Z,92.95
2022-11-07T21:07:19.970Z,89.90
2022-11-07T21:09:47.040Z,75.55
2022-11-07T21:12:14.144Z,79.22
2022-11-07T21:14:42.248Z,79.28
2022-11-07T21:17:09.862Z,76.22
2022-11-07T21:19:36.895Z,82.10
2022-11-07T21:22:04.341Z,103.70
2022-11-07T21:24:31.864Z,103.35
2022-11-07T21:26:59.104Z,93.30
2022-11-07T21:29:29.584Z,98.25
2022-11-07T21:31:57.394Z,92.25
2022-11-07T21:34:24.798Z,77.30
2022-11-07T21:36:51.478Z,78.47
2022-11-07T21:39:18.119Z,76.97
2022-11-07T21:41:45.298Z,75.78
2022-11-07T21:44:12.571Z,74.50
2022-11-07T21:46:39.747Z,75.68
2022-11-07T21:49:06.569Z,72.13
2022-11-07T21:51:35.092Z,67.88
2022-11-07T21:54:04.168Z,66.88
2022-11-07T21:56:33.188Z,70.70
2022-11-07T21:59:02.729Z,70.35
2022-11-07T22:01:34.989Z,68.18
2022-11-07T22:04:07.380Z,68.80
2022-11-07T22:06:37.616Z,65.82
2022-11-07T22:09:06.006Z,65.80
2022-11-07T22:11:32.802Z,74.40
2022-11-07T22:13:59.432Z,73.03
2022-11-07T22:16:26.201Z,73.93
2022-11-07T22:18:52.902Z,70.30
2022-11-07T22:21:22.178Z,64.70
2022-11-07T22:23:49.555Z,66.07
2022-11-07T22:26:27.207Z,63.65
2022-11-07T22:28:54.481Z,61.22
2022-11-07T22:31:23.956Z,64.18
2022-11-07T22:33:52.234Z,59.50
2022-11-07T22:36:19.962Z,57.90
2022-11-07T22:38:47.127Z,56.83
2022-11-07T22:41:20.058Z,57.83
2022-11-07T22:43:47.282Z,61.83
2022-11-07T22:46:17.308Z,58.83
2022-11-07T22:48:45.479Z,63.95
2022-11-07T22:51:15.585Z,56.58
2022-11-07T22:53:42.217Z,61.03
2022-11-07T22:56:18.872Z,62.60
2022-11-07T22:58:47.109Z,63.10
2022-11-07T23:01:17.433Z,62.60
2022-11-07T23:03:44.271Z,59.60
2022-11-07T23:06:11.123Z,59.25
2022-11-07T23:08:38.297Z,51.50
2022-11-07T23:11:44.211Z,50.00
2022-11-07T23:14:00.893Z,51.53
2022-11-07T23:16:32.805Z,48.90
2022-11-07T23:19:01.599Z,52.60
2022-11-07T23:21:28.837Z,55.17
2022-11-07T23:23:57.699Z,48.70
2022-11-07T23:26:25.740Z,51.17
2022-11-07T23:28:52.645Z,50.95
2022-11-07T23:31:20.119Z,53.15
2022-11-07T23:33:47.259Z,51.38
2022-11-07T23:36:16.245Z,56.35
2022-11-07T23:38:43.982Z,52.78
2022-11-07T23:41:15.421Z,50.75
2022-11-07T23:43:43.221Z,50.38
2022-11-07T23:46:32.432Z,49.47
2022-11-07T23:49:17.679Z,54.80
2022-11-07T23:51:45.266Z,55.25
2022-11-07T23:54:30.780Z,53.15
2022-11-07T23:56:57.511Z,49.30
2022-11-07T23:59:42.734Z,57.03
